createdAt,value
2022-10-09T00:00:26.646Z,7.60
2022-10-09T00:02:53.487Z,8.00
2022-10-09T00:05:21.092Z,7.80
2022-10-09T00:07:48.635Z,7.80
2022-10-09T00:10:15.603Z,8.20
2022-10-09T00:12:42.407Z,7.80
2022-10-09T00:15:10.427Z,7.10
2022-10-09T00:17:37.229Z,6.90
2022-10-09T00:20:04.904Z,6.70
2022-10-09T00:22:31.810Z,6.20
2022-10-09T00:24:58.774Z,6.30
2022-10-09T00:27:25.580Z,5.30
2022-10-09T00:29:53.493Z,5.40
2022-10-09T00:32:20.765Z,5.80
2022-10-09T00:34:48.258Z,6.10
2022-10-09T00:37:15.244Z,5.20
2022-10-09T00:39:42.088Z,5.00
2022-10-09T00:42:11.413Z,4.80
2022-10-09T00:44:51.854Z,4.50
2022-10-09T00:47:42.311Z,4.50
2022-10-09T00:50:19.606Z,4.90
2022-10-09T00:52:47.408Z,4.70
2022-10-09T00:55:15.927Z,4.40
2022-10-09T00:57:43.196Z,5.20
2022-10-09T01:00:11.627Z,5.20
2022-10-09T01:02:38.928Z,4.90
2022-10-09T01:05:07.004Z,5.10
2022-10-09T01:07:53.823Z,5.00
2022-10-09T01:10:27.126Z,4.70
2022-10-09T01:13:12.865Z,4.60
2022-10-09T01:15:45.827Z,4.80
2022-10-09T01:18:33.491Z,4.30
2022-10-09T01:21:06.531Z,4.80
2022-10-09T01:24:10.519Z,4.40
2022-10-09T01:26:52.485Z,4.60
2022-10-09T01:29:20.244Z,4.40
2022-10-09T01:31:48.288Z,5.30
2022-10-09T01:34:15.314Z,5.20
2022-10-09T01:36:42.809Z,5.30
2022-10-09T01:39:11.704Z,5.20
2022-10-09T01:41:38.721Z,6.50
2022-10-09T01:44:18.422Z,6.00
2022-10-09T01:46:45.313Z,6.10
2022-10-09T01:49:39.480Z,6.80
2022-10-09T01:52:33.365Z,6.60
2022-10-09T01:55:00.178Z,6.60
2022-10-09T01:57:35.572Z,7.20
2022-10-09T02:00:04.055Z,5.70
2022-10-09T02:02:38.872Z,5.40
2022-10-09T02:05:06.214Z,6.50
2022-10-09T02:07:33.002Z,5.30
2022-10-09T02:10:01.010Z,6.40
2022-10-09T02:12:28.358Z,7.20
2022-10-09T02:14:55.307Z,7.00
2022-10-09T02:17:27.159Z,6.70
2022-10-09T02:20:00.835Z,6.40
2022-10-09T02:22:31.678Z,7.10
2022-10-09T02:24:59.344Z,6.80
2022-10-09T02:27:26.206Z,6.80
2022-10-09T02:29:53.081Z,7.00
2022-10-09T02:32:20.287Z,7.40
2022-10-09T02:34:47.547Z,6.60
2022-10-09T02:37:14.544Z,7.40
2022-10-09T02:39:42.123Z,6.90
2022-10-09T02:42:09.084Z,7.40
2022-10-09T02:44:35.944Z,7.40
2022-10-09T02:47:02.798Z,7.60
2022-10-09T02:49:29.788Z,7.50
2022-10-09T02:51:56.708Z,8.20
2022-10-09T02:54:23.640Z,8.10
2022-10-09T02:56:50.424Z,9.70
2022-10-09T02:59:17.451Z,9.20
2022-10-09T03:01:44.710Z,9.20
2022-10-09T03:04:11.555Z,10.10
2022-10-09T03:06:38.615Z,8.80
2022-10-09T03:09:05.837Z,9.00
2022-10-09T03:11:32.996Z,9.40
2022-10-09T03:13:59.945Z,9.30
2022-10-09T03:16:27.675Z,8.10
2022-10-09T03:18:55.360Z,8.50
2022-10-09T03:21:24.663Z,7.00
2022-10-09T03:23:51.850Z,6.30
2022-10-09T03:26:22.984Z,6.40
2022-10-09T03:28:50.673Z,7.50
2022-10-09T03:31:39.818Z,7.10
2022-10-09T03:34:07.109Z,6.50
2022-10-09T03:36:33.885Z,7.30
2022-10-09T03:39:00.747Z,6.80
2022-10-09T03:41:27.646Z,7.20
2022-10-09T03:43:54.841Z,6.80
2022-10-09T03:46:21.713Z,6.60
2022-10-09T03:48:48.728Z,7.40
2022-10-09T03:51:15.582Z,7.90
2022-10-09T03:53:42.316Z,6.60
2022-10-09T03:56:09.271Z,7.20
2022-10-09T03:58:36.244Z,7.10
2022-10-09T04:01:03.073Z,6.60
2022-10-09T04:03:30.828Z,7.40
2022-10-09T04:05:57.832Z,7.00
2022-10-09T04:08:24.795Z,7.00
2022-10-09T04:10:58.843Z,8.50
2022-10-09T04:13:25.920Z,8.10
2022-10-09T04:15:53.631Z,6.00
2022-10-09T04:18:20.730Z,7.50
2022-10-09T04:20:52.166Z,7.30
2022-10-09T04:23:19.717Z,7.90
2022-10-09T04:25:46.862Z,7.20
2022-10-09T04:28:13.772Z,5.40
2022-10-09T04:30:40.645Z,5.00
2022-10-09T04:33:11.971Z,5.20
2022-10-09T04:35:43.700Z,4.30
2022-10-09T04:38:12.602Z,4.50
2022-10-09T04:40:40.600Z,4.80
2022-10-09T04:43:07.576Z,5.50
2022-10-09T04:45:39.733Z,5.30
2022-10-09T04:48:06.855Z,5.50
2022-10-09T04:50:34.282Z,5.40
2022-10-09T04:53:02.665Z,6.30
2022-10-09T04:55:29.763Z,6.80
2022-10-09T04:57:57.971Z,6.10
2022-10-09T05:00:24.906Z,6.00
2022-10-09T05:02:52.131Z,7.20
2022-10-09T05:05:19.407Z,7.70
2022-10-09T05:07:46.255Z,8.60
2022-10-09T05:10:13.036Z,7.60
2022-10-09T05:12:40.009Z,7.90
2022-10-09T05:15:07.896Z,7.30
2022-10-09T05:17:36.480Z,6.70
2022-10-09T05:20:03.492Z,7.50
2022-10-09T05:22:31.972Z,9.30
2022-10-09T05:24:59.393Z,9.40
2022-10-09T05:27:26.333Z,10.40
2022-10-09T05:29:53.351Z,10.40
2022-10-09T06:23:27.445Z,3.70
2022-10-09T06:26:05.510Z,3.80
2022-10-09T06:28:33.367Z,4.50
2022-10-09T06:31:04.907Z,4.30
2022-10-09T06:33:36.256Z,4.40
2022-10-09T06:36:10.308Z,3.90
2022-10-09T06:38:38.245Z,4.30
2022-10-09T06:41:09.770Z,3.50
2022-10-09T06:43:37.484Z,3.10
2022-10-09T06:46:08.916Z,2.90
2022-10-09T06:48:36.907Z,3.10
2022-10-09T06:51:14.905Z,4.70
2022-10-09T06:53:43.772Z,4.10
2022-10-09T06:58:38.732Z,4.00
2022-10-09T07:01:06.679Z,3.50
2022-10-09T07:03:34.232Z,2.60
2022-10-09T07:06:16.259Z,2.20
2022-10-09T07:08:46.859Z,2.00
2022-10-09T07:11:15.372Z,2.60
2022-10-09T07:13:42.953Z,2.80
2022-10-09T07:16:11.768Z,2.80
2022-10-09T07:18:39.625Z,2.70
2022-10-09T07:21:08.162Z,2.20
2022-10-09T07:23:35.929Z,2.70
2022-10-09T07:26:18.656Z,3.00
2022-10-09T07:28:46.116Z,2.40
2022-10-09T07:31:13.286Z,2.10
2022-10-09T07:33:41.827Z,1.90
2022-10-09T07:36:09.409Z,2.00
2022-10-09T07:38:37.782Z,2.10
2022-10-09T07:41:11.860Z,2.00
2022-10-09T07:43:39.921Z,2.50
2022-10-09T07:46:11.364Z,2.50
2022-10-09T07:48:38.620Z,3.00
2022-10-09T07:51:16.155Z,2.20
2022-10-09T07:53:43.076Z,2.40
2022-10-09T07:56:15.924Z,2.50
2022-10-09T07:58:43.547Z,2.60
2022-10-09T08:01:12.402Z,2.80
2022-10-09T08:03:41.301Z,2.30
2022-10-09T08:06:08.660Z,2.20
2022-10-09T08:08:35.554Z,2.10
2022-10-09T08:11:11.862Z,2.10
2022-10-09T08:13:39.110Z,2.40
2022-10-09T08:16:07.095Z,2.60
2022-10-09T08:18:34.434Z,2.40
2022-10-09T08:21:06.930Z,2.20
2022-10-09T08:23:34.004Z,2.60
2022-10-09T08:26:00.971Z,2.40
2022-10-09T08:28:29.360Z,1.90
2022-10-09T08:30:56.736Z,2.10
2022-10-09T08:33:25.121Z,1.90
2022-10-09T08:35:53.100Z,1.70
2022-10-09T08:38:45.577Z,2.00
2022-10-09T08:41:13.406Z,2.10
2022-10-09T08:43:42.892Z,2.20
2022-10-09T08:46:42.367Z,2.40
2022-10-09T08:49:10.145Z,2.80
2022-10-09T08:51:36.979Z,2.80
2022-10-09T08:54:09.648Z,3.00
2022-10-09T08:56:36.820Z,2.60
2022-10-09T08:59:05.981Z,3.00
2022-10-09T09:01:42.648Z,2.60
2022-10-09T09:04:38.313Z,2.30
2022-10-09T09:07:44.060Z,2.90
2022-10-09T09:10:31.823Z,2.50
2022-10-09T09:13:24.453Z,2.30
2022-10-09T09:16:04.164Z,2.30
2022-10-09T09:18:54.742Z,2.80
2022-10-09T09:21:35.475Z,2.40
2022-10-09T09:24:03.576Z,2.50
2022-10-09T09:26:30.406Z,2.60
2022-10-09T09:29:01.222Z,2.40
2022-10-09T09:31:30.607Z,2.90
2022-10-09T09:34:16.334Z,2.70
2022-10-09T09:36:54.501Z,2.50
2022-10-09T09:40:23.764Z,3.00
2022-10-09T09:42:10.048Z,2.50
2022-10-09T09:44:43.724Z,3.00
2022-10-09T09:47:17.792Z,3.20
2022-10-09T09:49:58.142Z,3.30
2022-10-09T09:52:28.092Z,2.80
2022-10-09T09:54:56.974Z,2.90
2022-10-09T09:57:37.731Z,2.70
2022-10-09T10:00:21.573Z,2.90
2022-10-09T10:02:49.816Z,3.10
2022-10-09T10:05:23.796Z,3.00
2022-10-09T10:07:51.759Z,2.90
2022-10-09T10:10:26.765Z,2.70
2022-10-09T10:12:58.318Z,2.90
2022-10-09T10:15:26.809Z,3.50
2022-10-09T10:17:59.983Z,3.60
2022-10-09T10:20:27.647Z,3.60
2022-10-09T10:22:56.943Z,4.20
2022-10-09T10:25:30.932Z,4.00
2022-10-09T10:28:04.059Z,4.30
2022-10-09T10:30:31.040Z,4.10
2022-10-09T10:33:08.124Z,4.10
2022-10-09T10:35:39.236Z,3.20
2022-10-09T10:38:21.677Z,3.90
2022-10-09T10:41:12.439Z,3.80
2022-10-09T10:43:48.704Z,4.00
2022-10-09T10:46:30.221Z,4.10
2022-10-09T10:48:57.312Z,3.70
2022-10-09T10:51:55.409Z,4.40
2022-10-09T10:55:13.540Z,4.20
2022-10-09T10:57:49.906Z,4.80
2022-10-09T11:00:17.561Z,3.40
2022-10-09T11:02:53.726Z,3.90
2022-10-09T11:05:27.987Z,4.40
2022-10-09T11:08:10.127Z,4.40
2022-10-09T11:10:57.940Z,4.70
2022-10-09T11:13:43.814Z,4.40
2022-10-09T11:16:35.959Z,4.80
2022-10-09T11:19:45.591Z,4.50
2022-10-09T11:22:17.847Z,4.50
2022-10-09T11:24:59.686Z,4.60
2022-10-09T11:27:29.081Z,4.30
2022-10-09T11:30:03.377Z,3.90
2022-10-09T11:35:18.726Z,4.00
2022-10-09T11:37:53.780Z,4.50
2022-10-09T11:40:23.252Z,5.40
2022-10-09T11:43:07.603Z,4.00
2022-10-09T11:45:58.400Z,4.90
2022-10-09T11:49:04.682Z,4.50
2022-10-09T11:51:43.288Z,4.80
2022-10-09T11:54:15.007Z,5.10
2022-10-09T11:57:04.202Z,5.00
2022-10-09T11:59:37.733Z,3.70
2022-10-09T12:02:33.844Z,4.70
2022-10-09T12:05:01.124Z,4.30
2022-10-09T12:07:36.059Z,4.80
2022-10-09T12:10:20.737Z,4.80
2022-10-09T12:13:06.901Z,4.60
2022-10-09T12:15:50.225Z,4.80
2022-10-09T12:18:23.413Z,5.00
2022-10-09T12:20:50.574Z,5.20
2022-10-09T12:23:28.090Z,4.40
2022-10-09T12:25:55.720Z,4.30
2022-10-09T12:28:38.632Z,4.50
2022-10-09T12:31:09.018Z,4.60
2022-10-09T12:33:38.506Z,5.30
2022-10-09T12:38:34.218Z,5.20
2022-10-09T12:41:07.646Z,5.30
2022-10-09T12:43:34.584Z,3.50
2022-10-09T12:46:01.648Z,4.80
2022-10-09T12:48:29.440Z,5.00
2022-10-09T12:50:56.410Z,5.30
2022-10-09T12:53:27.536Z,4.80
2022-10-09T12:56:00.806Z,5.40
2022-10-09T12:58:32.496Z,5.60
2022-10-09T13:01:01.823Z,6.70
2022-10-09T13:03:43.617Z,4.70
2022-10-09T13:06:18.768Z,4.80
2022-10-09T13:08:46.464Z,5.00
2022-10-09T13:11:51.372Z,5.80
2022-10-09T13:14:42.241Z,5.80
2022-10-09T13:17:21.699Z,6.60
2022-10-09T13:19:53.879Z,6.10
2022-10-09T13:22:31.002Z,6.60
2022-10-09T13:24:59.299Z,4.90
2022-10-09T13:27:28.386Z,5.10
2022-10-09T13:29:55.453Z,5.60
2022-10-09T13:32:24.408Z,5.90
2022-10-09T13:34:55.076Z,6.10
2022-10-09T13:37:23.916Z,6.70
2022-10-09T13:39:58.336Z,7.00
2022-10-09T13:42:30.537Z,6.40
2022-10-09T13:51:05.843Z,5.80
2022-10-09T13:53:33.037Z,5.90
2022-10-09T13:56:01.081Z,6.40
2022-10-09T13:58:28.546Z,7.00
2022-10-09T14:00:55.607Z,7.40
2022-10-09T14:03:22.508Z,5.50
2022-10-09T14:05:49.431Z,5.70
2022-10-09T14:08:16.911Z,5.90
2022-10-09T14:10:43.768Z,7.00
2022-10-09T14:13:11.433Z,6.40
2022-10-09T14:15:41.268Z,7.40
2022-10-09T14:18:11.860Z,6.80
2022-10-09T14:20:38.899Z,7.40
2022-10-09T14:23:06.253Z,5.20
2022-10-09T14:25:36.639Z,5.20
2022-10-09T14:28:03.818Z,5.80
2022-10-09T14:30:31.783Z,5.80
2022-10-09T14:32:59.374Z,6.00
2022-10-09T14:35:26.785Z,6.40
2022-10-09T14:37:53.797Z,6.70
2022-10-09T14:40:22.149Z,6.50
2022-10-09T14:42:50.012Z,5.40
2022-10-09T14:45:17.562Z,5.20
2022-10-09T14:47:44.438Z,6.00
2022-10-09T14:50:11.498Z,5.90
2022-10-09T14:52:38.619Z,6.20
2022-10-09T14:55:06.379Z,7.00
2022-10-09T14:57:35.593Z,6.60
2022-10-09T15:25:12.125Z,6.80
2022-10-09T15:27:40.388Z,6.60
2022-10-09T15:30:08.091Z,4.80
2022-10-09T15:32:35.057Z,4.40
2022-10-09T15:35:02.169Z,5.20
2022-10-09T15:37:29.093Z,4.90
2022-10-09T15:39:56.568Z,5.10
2022-10-09T15:42:23.339Z,5.60
2022-10-09T15:44:50.371Z,5.50
2022-10-09T15:47:27.189Z,6.60
2022-10-09T15:50:06.294Z,5.90
2022-10-09T15:52:33.822Z,6.00
2022-10-09T15:55:00.673Z,4.40
2022-10-09T15:57:27.837Z,4.50
2022-10-09T15:59:54.921Z,5.00
2022-10-09T16:02:21.713Z,5.60
2022-10-09T16:04:48.856Z,5.20
2022-10-09T16:07:16.367Z,5.60
2022-10-09T16:09:43.625Z,8.50
2022-10-09T16:14:41.335Z,9.60
2022-10-09T16:17:11.341Z,8.70
2022-10-09T16:19:40.375Z,8.80
2022-10-09T16:22:07.250Z,10.10
2022-10-09T16:24:34.383Z,12.20
2022-10-09T16:27:01.363Z,8.40
2022-10-09T16:29:30.077Z,8.90
2022-10-09T16:31:57.003Z,8.70
2022-10-09T16:34:24.342Z,9.70
2022-10-09T16:36:51.272Z,8.30
2022-10-09T16:39:18.058Z,8.10
2022-10-09T16:41:45.499Z,6.90
2022-10-09T16:44:14.064Z,7.90
2022-10-09T16:46:41.116Z,6.70
2022-10-09T16:49:16.622Z,7.70
2022-10-09T16:51:45.640Z,7.70
2022-10-09T16:54:12.627Z,6.50
2022-10-09T16:56:40.697Z,6.40
2022-10-09T16:59:12.419Z,6.20
2022-10-09T17:01:43.833Z,6.60
2022-10-09T17:04:11.321Z,7.20
2022-10-09T17:06:41.247Z,6.40
2022-10-09T17:09:13.765Z,6.00
2022-10-09T17:11:41.375Z,6.80
2022-10-09T17:14:08.335Z,6.20
2022-10-09T17:16:38.250Z,6.10
2022-10-09T17:19:05.352Z,6.10
2022-10-09T17:21:34.478Z,4.70
2022-10-09T17:24:03.668Z,4.40
2022-10-09T17:26:31.505Z,4.90
2022-10-09T17:28:58.961Z,5.30
2022-10-09T17:31:27.206Z,4.90
2022-10-09T17:33:56.267Z,4.60
2022-10-09T17:36:24.574Z,5.30
2022-10-09T17:38:52.063Z,4.90
2022-10-09T17:41:21.488Z,5.00
2022-10-09T17:43:49.077Z,3.70
2022-10-09T17:46:17.330Z,3.20
2022-10-09T17:48:53.221Z,3.70
2022-10-09T17:51:31.533Z,3.30
2022-10-09T17:54:01.249Z,3.70
2022-10-09T17:56:29.196Z,4.10
2022-10-09T17:58:56.628Z,3.80
2022-10-09T18:01:23.634Z,3.60
2022-10-09T18:03:52.158Z,3.80
2022-10-09T18:06:21.543Z,2.40
2022-10-09T18:08:48.401Z,2.40
2022-10-09T18:11:16.176Z,2.50
2022-10-09T18:16:19.250Z,2.80
2022-10-09T18:18:46.706Z,2.40
2022-10-09T18:21:17.272Z,2.70
2022-10-09T18:23:45.646Z,2.60
2022-10-09T18:26:16.071Z,2.50
2022-10-09T18:28:46.055Z,2.60
2022-10-09T18:31:19.887Z,2.50
2022-10-09T18:33:47.731Z,2.10
2022-10-09T18:36:23.104Z,1.50
2022-10-09T18:38:54.164Z,1.80
2022-10-09T18:41:22.594Z,1.60
2022-10-09T18:43:50.207Z,2.00
2022-10-09T18:46:18.042Z,2.00
2022-10-09T18:48:45.103Z,1.70
2022-10-09T18:51:16.233Z,1.90
2022-10-09T18:53:45.211Z,2.20
2022-10-09T18:56:12.319Z,1.70
2022-10-09T18:58:40.729Z,1.80
2022-10-09T19:01:08.152Z,1.80
2022-10-09T19:03:37.686Z,1.40
2022-10-09T19:06:05.654Z,1.50
2022-10-09T19:08:36.595Z,1.50
2022-10-09T19:11:04.278Z,1.70
2022-10-09T19:13:31.407Z,1.50
2022-10-09T19:16:00.160Z,1.60
2022-10-09T19:18:27.055Z,1.40
2022-10-09T19:20:54.076Z,1.40
2022-10-09T19:23:21.753Z,1.20
2022-10-09T19:25:51.164Z,1.60
2022-10-09T19:28:18.374Z,1.30
2022-10-09T19:30:45.695Z,0.90
2022-10-09T19:33:12.830Z,1.00
2022-10-09T19:35:50.841Z,1.10
2022-10-09T19:38:18.264Z,1.10
2022-10-09T19:40:45.989Z,1.00
2022-10-09T19:43:16.128Z,1.30
2022-10-09T19:45:43.390Z,1.30
2022-10-09T19:48:11.464Z,0.90
2022-10-09T19:50:45.797Z,1.00
2022-10-09T19:53:13.110Z,1.70
2022-10-09T19:55:40.103Z,1.40
2022-10-09T19:58:08.967Z,1.30
2022-10-09T20:00:42.793Z,1.10
2022-10-09T20:03:10.565Z,1.00
2022-10-09T20:05:38.199Z,0.70
2022-10-09T20:08:17.111Z,0.80
2022-10-09T20:10:47.671Z,1.10
2022-10-09T20:13:14.621Z,1.00
2022-10-09T20:15:42.758Z,0.90
2022-10-09T20:18:10.154Z,1.10
2022-10-09T20:20:40.646Z,1.40
2022-10-09T20:23:07.684Z,1.20
2022-10-09T20:25:34.761Z,1.40
2022-10-09T20:28:01.979Z,1.00
2022-10-09T20:30:29.065Z,1.20
2022-10-09T20:32:59.094Z,1.00
2022-10-09T20:35:26.646Z,1.20
2022-10-09T20:37:53.766Z,0.90
2022-10-09T20:40:20.804Z,0.90
2022-10-09T20:42:48.200Z,1.00
2022-10-09T20:45:16.017Z,1.70
2022-10-09T20:47:45.238Z,0.90
2022-10-09T20:50:12.217Z,1.30
2022-10-09T20:52:39.312Z,1.00
2022-10-09T20:55:07.223Z,0.90
2022-10-09T20:57:34.110Z,0.90
2022-10-09T21:00:02.382Z,0.90
2022-10-09T21:02:29.368Z,0.90
2022-10-09T21:04:56.572Z,1.00
2022-10-09T21:07:23.349Z,1.00
2022-10-09T21:09:50.210Z,1.30
2022-10-09T21:12:17.150Z,1.30
2022-10-09T21:14:44.508Z,0.90
2022-10-09T21:17:11.421Z,1.20
2022-10-09T21:19:38.561Z,1.10
2022-10-09T21:22:05.740Z,1.20
2022-10-09T21:24:32.590Z,1.00
2022-10-09T21:27:00.342Z,1.20
2022-10-09T21:29:27.568Z,1.20
2022-10-09T21:31:54.415Z,0.80
2022-10-09T21:34:21.177Z,0.60
2022-10-09T21:37:19.433Z,0.90
2022-10-09T21:39:36.057Z,0.90
2022-10-09T21:42:03.288Z,1.00
2022-10-09T21:44:30.337Z,0.90
2022-10-09T21:46:57.814Z,0.80
2022-10-09T21:49:27.417Z,0.80
2022-10-09T21:51:54.566Z,1.00
2022-10-09T21:54:22.646Z,1.30
2022-10-09T21:56:49.682Z,1.00
2022-10-09T21:59:16.514Z,0.90
2022-10-09T22:01:43.882Z,0.90
2022-10-09T22:04:10.923Z,1.10
2022-10-09T22:06:41.154Z,1.20
2022-10-09T22:09:08.547Z,1.00
2022-10-09T22:11:36.136Z,0.80
2022-10-09T22:14:06.176Z,1.20
2022-10-09T22:16:34.001Z,0.80
2022-10-09T22:19:04.231Z,0.80
2022-10-09T22:21:31.415Z,0.90
2022-10-09T22:23:59.992Z,1.80
2022-10-09T22:26:28.041Z,0.90
2022-10-09T22:28:55.006Z,1.20
2022-10-09T22:31:24.534Z,1.00
2022-10-09T22:33:56.144Z,1.20
2022-10-09T22:36:24.737Z,1.10
2022-10-09T22:38:56.083Z,0.80
2022-10-09T22:41:23.735Z,1.10
2022-10-09T22:43:52.561Z,0.90
2022-10-09T22:46:21.304Z,0.80
2022-10-09T22:48:48.673Z,0.50
2022-10-09T22:51:16.755Z,0.80
2022-10-09T22:53:44.108Z,0.90
2022-10-09T22:56:35.498Z,1.00
2022-10-09T22:59:02.966Z,1.10
2022-10-09T23:01:31.657Z,1.10
2022-10-09T23:03:59.643Z,1.00
2022-10-09T23:06:26.958Z,1.30
2022-10-09T23:08:53.894Z,1.00
2022-10-09T23:11:23.650Z,1.20
2022-10-09T23:13:55.009Z,1.00
2022-10-09T23:16:22.091Z,1.00
2022-10-09T23:18:53.043Z,1.00
2022-10-09T23:21:21.489Z,1.00
2022-10-09T23:23:48.739Z,1.10
2022-10-09T23:26:17.398Z,1.00
2022-10-09T23:28:44.384Z,1.10
2022-10-09T23:33:42.735Z,1.30
2022-10-09T23:36:11.590Z,1.00
2022-10-09T23:38:39.713Z,0.80
2022-10-09T23:41:08.579Z,0.60
2022-10-09T23:43:38.591Z,0.70
2022-10-09T23:46:06.972Z,1.00
2022-10-09T23:48:34.508Z,1.00
2022-10-09T23:51:02.212Z,0.80
2022-10-09T23:53:29.614Z,1.00
2022-10-09T23:55:56.844Z,0.90
2022-10-09T23:58:24.656Z,0.70
